Decoded Metar for KERI (ERIE in PA, USA) (IATA:ERI) | Meteo·Mobile Aviation Weather
aviador You're here:

KERI Decoded Metar

ERIE in PA, USA
Report Time2018-12-11 23:51:00
UTC Time2018-12-12 00:18:07
Flight Rules mvfr MVFR
Wind260° at 08 kt
W.Decomp.*RWY 24: 6.9 kt HW 4.0 kt RCW
RWY 20: 2.7 kt HW 7.5 kt RCW
W.Rank260° ranks 6
Current wind is below 260° avg. (10.3)
Visibility9656 m
Phenomena:N/A
Clouds:Overcast 017 Hf
Expected CloudBase > 1,600 ft AGL from Temp-Dew spread
Ceiling1,700 ft
Temp01°C (ISA -13)
Dew Point-3°C (75% RH)
AAT-4.3°C
QNH1016 hPa
Density Alt-833 ft
Elevation728 ft
Report Wrong Elevation
Raw Report
KERI 112351Z 26008KT 6SM UP OVC017 01/M03 A3001 RMK AO2
UPB2257SNB02E07B22E29B39E51 SLP172 P0000 60000 T00061033
10006 21022 53007=

Extra information for KERI:More info

Metar Taf Metar & Taf Last 4 Metars F.Rules Stats Wind Profile Meteogram Temp Stats Airport Information Weather charts Add Link Nearby VenuesMetar ALERT Operation Metar Decoded Social comments

AIRNAV info for KERI